Time;durP1;ratioP1;P1;durP2;ratioP2;P2;SDS_P1;SDS_P2;PMS_P1;PMS_P2;Temp;Humidity;BMP_temperature;BMP_pressure;BME280_temperature;BME280_humidity;BME280_pressure;Samples;Min_cycle;Max_cycle;Signal;HPM_P1;HPM_P2
2023/08/12 00:00:13;;;;;;;4.72;3.13;;;18.80;99.90;;;;;;5057071;28;20055;-68
2023/08/12 00:02:40;;;;;;;9.35;3.72;;;19.00;99.90;;;;;;5050830;28;20051;-69
2023/08/12 00:05:06;;;;;;;8.52;3.40;;;18.80;99.90;;;;;;5039876;28;20036;-68
2023/08/12 00:07:33;;;;;;;8.05;3.50;;;18.90;99.90;;;;;;5051759;28;20091;-68
2023/08/12 00:09:59;;;;;;;7.30;3.13;;;18.80;99.90;;;;;;5059757;28;20044;-69
2023/08/12 00:12:25;;;;;;;6.93;3.58;;;18.90;99.90;;;;;;5062029;28;20079;-69
2023/08/12 00:14:50;;;;;;;7.85;3.58;;;18.80;99.90;;;;;;5042489;28;20578;-69
2023/08/12 00:17:16;;;;;;;7.88;3.53;;;18.90;99.90;;;;;;5061228;28;20036;-69
2023/08/12 00:19:42;;;;;;;11.05;4.22;;;18.90;99.90;;;;;;5052534;28;20040;-69
2023/08/12 00:22:07;;;;;;;9.43;3.78;;;18.90;99.90;;;;;;5055806;28;20044;-69
2023/08/12 00:24:33;;;;;;;7.57;3.67;;;18.90;99.90;;;;;;5037598;28;20156;-69
2023/08/12 00:26:58;;;;;;;9.25;4.47;;;18.90;99.90;;;;;;5047966;28;20090;-69
2023/08/12 00:29:24;;;;;;;10.60;4.70;;;18.90;99.90;;;;;;5030526;28;20502;-69
2023/08/12 00:31:50;;;;;;;9.80;5.55;;;18.90;99.90;;;;;;5047551;28;20635;-70
2023/08/12 00:34:16;;;;;;;10.43;4.15;;;18.90;99.90;;;;;;5042710;28;20132;-69
2023/08/12 00:36:42;;;;;;;8.10;4.20;;;18.90;99.90;;;;;;5049278;28;20547;-69
2023/08/12 00:39:08;;;;;;;8.93;4.55;;;19.00;99.90;;;;;;5024887;28;20053;-69
2023/08/12 00:41:33;;;;;;;6.97;4.00;;;19.20;99.90;;;;;;5043042;28;20037;-68
2023/08/12 00:43:59;;;;;;;9.40;4.32;;;18.90;99.90;;;;;;5056988;28;20041;-68
2023/08/12 00:46:24;;;;;;;9.65;3.78;;;18.80;99.90;;;;;;5067530;28;20047;-69
2023/08/12 00:48:50;;;;;;;7.53;4.00;;;18.80;99.90;;;;;;5063546;28;20051;-69
2023/08/12 00:51:16;;;;;;;7.97;4.72;;;18.90;99.90;;;;;;5039960;28;20060;-69
2023/08/12 00:53:42;;;;;;;6.53;3.92;;;18.90;99.90;;;;;;5050077;28;20433;-69
2023/08/12 00:56:09;;;;;;;7.75;4.32;;;18.90;99.90;;;;;;5068367;28;20497;-69
2023/08/12 00:58:35;;;;;;;7.32;4.35;;;19.00;99.90;;;;;;5050205;28;20371;-69
2023/08/12 01:01:01;;;;;;;10.35;4.95;;;18.90;99.90;;;;;;5069086;28;20075;-68
2023/08/12 01:03:26;;;;;;;8.75;4.25;;;18.90;99.90;;;;;;5060941;28;20095;-69
2023/08/12 01:05:52;;;;;;;11.02;4.93;;;18.90;99.90;;;;;;5057976;28;20134;-69
2023/08/12 01:08:18;;;;;;;11.80;6.15;;;;;;;;;;5065205;28;20032;-69
2023/08/12 01:10:52;;;;;;;10.15;4.72;;;19.10;99.90;;;;;;5063018;28;20041;-69
2023/08/12 01:13:42;;;;;;;10.05;5.55;;;19.00;99.90;;;;;;5059258;28;20047;-68
2023/08/12 01:16:09;;;;;;;8.98;5.60;;;19.00;99.90;;;;;;5061101;28;20043;-68
2023/08/12 01:18:35;;;;;;;9.70;5.20;;;;;;;;;;5059747;28;20140;-69
2023/08/12 01:21:03;;;;;;;10.43;6.15;;;19.00;99.90;;;;;;5042193;28;20482;-68
2023/08/12 01:23:29;;;;;;;10.95;5.40;;;18.90;99.90;;;;;;5060019;28;20044;-69
2023/08/12 01:25:55;;;;;;;10.90;6.07;;;18.80;99.90;;;;;;5066285;28;20044;-69
2023/08/12 01:28:21;;;;;;;10.68;5.63;;;;;;;;;;5067689;28;20043;-69
2023/08/12 01:30:57;;;;;;;10.18;5.65;;;18.70;99.90;;;;;;5047511;28;20047;-69
2023/08/12 01:33:32;;;;;;;11.60;5.88;;;18.50;99.90;;;;;;5044952;28;20504;-68
2023/08/12 01:36:09;;;;;;;8.85;5.75;;;18.60;99.90;;;;;;5046954;28;20178;-69
2023/08/12 01:38:37;;;;;;;8.30;4.88;;;18.70;99.90;;;;;;5064391;28;20518;-69
2023/08/12 01:41:03;;;;;;;10.05;4.90;;;18.60;99.90;;;;;;5064814;28;20537;-68
2023/08/12 01:43:29;;;;;;;10.32;5.95;;;18.50;99.90;;;;;;5060409;28;20079;-68
2023/08/12 01:45:55;;;;;;;9.40;5.75;;;18.50;99.90;;;;;;5043376;28;20487;-68
2023/08/12 01:48:23;;;;;;;9.07;5.22;;;18.50;99.90;;;;;;5044702;28;20056;-69
2023/08/12 01:50:48;;;;;;;11.35;6.40;;;18.50;99.90;;;;;;5059258;28;20090;-68
2023/08/12 01:53:14;;;;;;;10.63;6.47;;;18.60;99.90;;;;;;5061530;28;20442;-68
2023/08/12 01:55:43;;;;;;;10.80;6.00;;;18.60;99.90;;;;;;5046531;28;20040;-69
2023/08/12 01:58:09;;;;;;;12.20;6.05;;;;;;;;;;5051881;28;20040;-68
2023/08/12 02:00:35;;;;;;;12.57;7.10;;;18.80;99.90;;;;;;5028973;28;20044;-68
2023/08/12 02:03:00;;;;;;;15.80;7.38;;;18.70;99.90;;;;;;5067879;28;20407;-69
2023/08/12 02:05:26;;;;;;;11.00;6.90;;;;;;;;;;5055194;28;20047;-68
2023/08/12 02:07:52;;;;;;;11.13;7.03;;;;;;;;;;5060356;28;20048;-69
2023/08/12 02:10:18;;;;;;;14.77;7.93;;;19.00;99.90;;;;;;5048526;28;20570;-69
2023/08/12 02:12:43;;;;;;;13.73;8.13;;;19.10;99.90;;;;;;5067694;28;20059;-68
2023/08/12 02:15:09;;;;;;;12.00;7.85;;;18.90;99.90;;;;;;5063277;28;20037;-69
2023/08/12 02:17:35;;;;;;;12.60;7.35;;;;;;;;;;5061881;28;20426;-69
2023/08/12 02:20:02;;;;;;;11.63;7.72;;;;;;;;;;5040270;28;20072;-69
2023/08/12 02:22:29;;;;;;;13.45;7.57;;;;;;;;;;5060518;28;20048;-69
2023/08/12 02:24:55;;;;;;;15.00;9.13;;;;;;;;;;5058865;28;20098;-69
2023/08/12 02:27:21;;;;;;;15.20;8.68;;;;;;;;;;5063498;28;20131;-69
2023/08/12 02:29:47;;;;;;;16.35;8.85;;;;;;;;;;5048409;28;20147;-68
2023/08/12 02:32:13;;;;;;;14.63;8.90;;;;;;;;;;5046352;28;20041;-69
2023/08/12 02:34:39;;;;;;;13.77;9.15;;;18.60;99.90;;;;;;5058302;28;20805;-69
2023/08/12 02:37:04;;;;;;;15.25;8.57;;;18.60;99.90;;;;;;5018867;28;20045;-68
2023/08/12 02:39:30;;;;;;;14.35;9.38;;;18.70;99.90;;;;;;5061210;28;20056;-69
2023/08/12 02:41:56;;;;;;;16.63;9.90;;;;;;;;;;5045480;28;20053;-69
2023/08/12 02:44:22;;;;;;;16.42;9.88;;;;;;;;;;5040547;28;20048;-69
2023/08/12 02:46:47;;;;;;;19.60;9.13;;;18.80;99.90;;;;;;5047792;28;20079;-68
2023/08/12 02:49:13;;;;;;;15.95;9.32;;;;;;;;;;5060947;28;20036;-69
2023/08/12 02:51:39;;;;;;;20.13;9.90;;;;;;;;;;5063510;28;20116;-68
2023/08/12 02:54:05;;;;;;;19.67;9.88;;;18.70;99.90;;;;;;5056497;28;20120;-69
2023/08/12 02:56:31;;;;;;;18.05;10.52;;;;;;;;;;5032730;28;20052;-69
2023/08/12 02:58:57;;;;;;;16.63;10.65;;;;;;;;;;5058267;28;20451;-69
2023/08/12 03:01:23;;;;;;;19.55;10.82;;;18.70;99.90;;;;;;5052543;28;20040;-68
2023/08/12 03:03:48;;;;;;;16.92;10.75;;;18.70;99.90;;;;;;5066094;28;20036;-69
2023/08/12 03:06:14;;;;;;;17.70;10.73;;;;;;;;;;5046098;28;20051;-69
2023/08/12 03:08:40;;;;;;;15.85;10.30;;;;;;;;;;5044334;28;20049;-69
2023/08/12 03:11:06;;;;;;;14.95;9.88;;;18.90;99.90;;;;;;5065182;28;20662;-69
2023/08/12 03:13:31;;;;;;;20.10;11.45;;;18.70;99.90;;;;;;5046800;28;20036;-69
2023/08/12 03:15:57;;;;;;;18.42;10.93;;;;;;;;;;5066318;28;20056;-69
2023/08/12 03:18:23;;;;;;;16.13;10.32;;;18.80;99.90;;;;;;5063323;28;20080;-69
2023/08/12 03:20:49;;;;;;;16.73;10.60;;;;;;;;;;5062186;28;20063;-68
2023/08/12 03:23:15;;;;;;;21.05;11.68;;;18.60;99.90;;;;;;5060907;28;20041;-69
2023/08/12 03:25:41;;;;;;;16.75;10.75;;;;;;;;;;5038810;28;20044;-69
2023/08/12 03:28:06;;;;;;;19.92;11.60;;;18.70;99.90;;;;;;5067261;28;20044;-69
2023/08/12 03:30:32;;;;;;;14.93;9.68;;;18.70;99.90;;;;;;5052541;28;20040;-69
2023/08/12 03:32:58;;;;;;;19.02;10.52;;;;;;;;;;5061941;28;20037;-69
2023/08/12 03:35:23;;;;;;;19.90;10.60;;;18.80;99.90;;;;;;5060125;28;20498;-69
2023/08/12 03:37:51;;;;;;;14.73;9.93;;;18.90;99.90;;;;;;5029975;28;20101;-68
2023/08/12 03:40:17;;;;;;;22.60;10.60;;;;;;;;;;5044641;28;20064;-69
2023/08/12 03:42:42;;;;;;;16.83;10.40;;;18.80;99.90;;;;;;5057260;28;20119;-68
2023/08/12 03:45:08;;;;;;;17.42;10.57;;;18.70;99.90;;;;;;5061808;28;20086;-70
2023/08/12 03:47:37;;;;;;;17.13;10.30;;;18.60;99.90;;;;;;5041371;28;20049;-70
2023/08/12 03:50:03;;;;;;;13.82;8.75;;;18.80;99.90;;;;;;5044935;28;20036;-68
2023/08/12 03:55:57;;;;;;;16.75;9.10;;;18.80;99.90;;;;;;5040070;28;20132;-69
2023/08/12 03:58:23;;;;;;;17.10;9.50;;;;;;;;;;5059093;28;20050;-68
2023/08/12 04:00:48;;;;;;;15.57;9.40;;;18.80;99.90;;;;;;5054639;28;20047;-69
2023/08/12 04:03:14;;;;;;;17.70;9.18;;;18.80;99.90;;;;;;5063010;28;20387;-69
2023/08/12 04:05:48;;;;;;;21.95;10.32;;;18.70;99.90;;;;;;5045113;28;20757;-69
2023/08/12 04:08:14;;;;;;;14.77;9.10;;;18.80;99.90;;;;;;5056101;28;20051;-69
2023/08/12 04:10:39;;;;;;;16.90;10.10;;;18.80;99.90;;;;;;5061255;28;20036;-69
2023/08/12 04:13:06;;;;;;;17.67;10.02;;;;;;;;;;5056139;28;20036;-69
2023/08/12 04:15:31;;;;;;;15.23;9.60;;;19.00;99.90;;;;;;5035325;28;20057;-69
2023/08/12 04:17:58;;;;;;;13.73;9.68;;;19.00;99.90;;;;;;5024496;28;20056;-69
2023/08/12 04:20:24;;;;;;;18.75;9.73;;;19.00;99.90;;;;;;5056481;28;20048;-69
2023/08/12 04:22:49;;;;;;;17.77;10.13;;;19.00;99.90;;;;;;5061769;28;20403;-69
2023/08/12 04:25:15;;;;;;;17.33;9.40;;;18.80;99.90;;;;;;5046630;28;20072;-69
2023/08/12 04:27:41;;;;;;;24.05;10.88;;;18.90;99.90;;;;;;5063596;28;20046;-69
2023/08/12 04:30:07;;;;;;;16.95;10.02;;;18.90;99.90;;;;;;5057940;28;20111;-69
2023/08/12 04:32:32;;;;;;;19.02;11.00;;;18.90;99.90;;;;;;5035848;28;20051;-69
2023/08/12 04:34:58;;;;;;;17.48;10.63;;;18.80;99.90;;;;;;5062835;28;20041;-69
2023/08/12 04:37:24;;;;;;;18.48;9.90;;;18.90;99.90;;;;;;5044430;28;20044;-69
2023/08/12 04:39:50;;;;;;;18.50;10.48;;;18.90;99.90;;;;;;5064466;28;20053;-69
2023/08/12 04:42:15;;;;;;;19.33;10.38;;;19.00;99.90;;;;;;5057689;28;20047;-69
2023/08/12 04:44:41;;;;;;;19.52;11.35;;;19.00;99.90;;;;;;5058677;28;20037;-69
2023/08/12 04:47:07;;;;;;;17.80;11.07;;;19.00;99.90;;;;;;5059277;28;20398;-69
2023/08/12 04:49:32;;;;;;;16.95;10.20;;;19.20;99.90;;;;;;5050931;28;20252;-69
2023/08/12 04:51:58;;;;;;;16.70;10.55;;;;;;;;;;5046098;28;20036;-69
2023/08/12 04:54:24;;;;;;;19.25;10.73;;;19.20;99.90;;;;;;5061127;28;20040;-69
2023/08/12 04:56:49;;;;;;;18.25;11.40;;;19.10;99.90;;;;;;5061378;28;20044;-69
2023/08/12 04:59:15;;;;;;;19.88;10.55;;;19.10;99.90;;;;;;5063011;28;20046;-69
2023/08/12 05:01:40;;;;;;;17.90;10.80;;;19.10;99.90;;;;;;5064475;28;20036;-69
2023/08/12 05:04:06;;;;;;;19.52;11.40;;;19.30;99.90;;;;;;5040143;28;20040;-69
2023/08/12 05:06:31;;;;;;;22.05;11.77;;;19.00;99.90;;;;;;5064566;28;20082;-69
2023/08/12 05:08:57;;;;;;;20.63;11.27;;;19.10;99.90;;;;;;5058734;28;20482;-69
2023/08/12 05:11:22;;;;;;;22.75;11.98;;;19.30;99.90;;;;;;5062754;28;20472;-69
2023/08/12 05:13:48;;;;;;;17.00;11.60;;;19.40;99.90;;;;;;5063744;28;20575;-69
2023/08/12 05:16:14;;;;;;;23.63;11.60;;;;;;;;;;5043984;28;20711;-69
2023/08/12 05:18:40;;;;;;;21.33;10.95;;;;;;;;;;5055713;28;20501;-69
2023/08/12 05:21:05;;;;;;;19.92;12.50;;;19.50;99.90;;;;;;5060168;28;20070;-69
2023/08/12 05:23:31;;;;;;;23.02;11.43;;;19.70;99.90;;;;;;5064769;28;20045;-69
2023/08/12 05:25:56;;;;;;;20.42;11.68;;;19.50;99.90;;;;;;5048217;28;20517;-69
2023/08/12 05:28:22;;;;;;;18.40;12.25;;;19.60;99.90;;;;;;5046435;28;20537;-69
2023/08/12 05:30:48;;;;;;;22.40;13.02;;;19.60;99.90;;;;;;5065189;28;20040;-69
2023/08/12 05:33:13;;;;;;;21.98;13.90;;;19.60;99.90;;;;;;5043392;28;20072;-69
2023/08/12 05:35:39;;;;;;;23.02;13.00;;;19.50;99.90;;;;;;5063841;28;20047;-69
2023/08/12 05:38:05;;;;;;;28.75;13.13;;;19.50;99.90;;;;;;5062195;28;20397;-70
2023/08/12 05:40:30;;;;;;;19.30;11.93;;;19.60;99.90;;;;;;5059196;28;20044;-69
2023/08/12 05:42:56;;;;;;;20.08;12.60;;;19.70;99.90;;;;;;5045346;28;20163;-69
2023/08/12 05:45:21;;;;;;;22.00;13.48;;;19.70;99.90;;;;;;5023235;28;20047;-69
2023/08/12 05:47:47;;;;;;;23.83;13.85;;;19.80;99.90;;;;;;5058981;28;20045;-69
2023/08/12 05:50:12;;;;;;;21.05;13.88;;;19.90;99.90;;;;;;5046537;28;20072;-69
2023/08/12 05:52:38;;;;;;;22.35;14.07;;;20.00;99.90;;;;;;5057021;28;20037;-69
2023/08/12 05:55:04;;;;;;;23.52;13.98;;;19.80;99.90;;;;;;5062403;28;20055;-69
2023/08/12 05:57:30;;;;;;;22.42;14.32;;;19.80;99.90;;;;;;5059484;28;20044;-69
2023/08/12 05:59:55;;;;;;;24.75;15.05;;;19.90;99.90;;;;;;5062185;28;20091;-69
2023/08/12 06:02:21;;;;;;;26.35;15.10;;;19.90;99.90;;;;;;5062463;28;20123;-69
2023/08/12 06:04:46;;;;;;;26.50;16.48;;;19.80;99.90;;;;;;5062420;28;21818;-70
2023/08/12 06:07:12;;;;;;;24.05;15.55;;;19.90;99.90;;;;;;5057211;28;20037;-69
2023/08/12 06:09:37;;;;;;;31.52;17.20;;;19.90;99.90;;;;;;5045816;28;20654;-69
2023/08/12 06:12:03;;;;;;;34.83;18.00;;;19.80;99.90;;;;;;5044861;28;20048;-69
2023/08/12 06:14:29;;;;;;;27.73;17.52;;;19.80;99.90;;;;;;5061467;28;20474;-68
2023/08/12 06:16:54;;;;;;;24.20;14.70;;;19.80;99.90;;;;;;5054077;28;20052;-69
2023/08/12 06:19:20;;;;;;;29.80;16.73;;;19.80;99.90;;;;;;5033087;28;20044;-70
2023/08/12 06:21:45;;;;;;;28.67;17.65;;;19.80;99.90;;;;;;5062770;28;20043;-69
2023/08/12 06:24:11;;;;;;;29.13;16.20;;;19.80;99.90;;;;;;5063806;28;20032;-68
2023/08/12 06:26:36;;;;;;;29.63;17.42;;;19.70;99.90;;;;;;5042683;28;20483;-69
2023/08/12 06:29:02;;;;;;;28.85;16.17;;;19.90;99.90;;;;;;5038135;28;20044;-67
2023/08/12 06:31:27;;;;;;;30.67;18.17;;;20.10;99.90;;;;;;5064157;28;20056;-67
2023/08/12 06:33:53;;;;;;;32.25;18.30;;;19.90;99.90;;;;;;5043971;28;20127;-67
2023/08/12 06:36:19;;;;;;;26.75;17.60;;;19.90;99.90;;;;;;5049918;28;20052;-67
2023/08/12 06:38:44;;;;;;;30.02;17.38;;;19.90;99.90;;;;;;5061360;28;20064;-67
2023/08/12 06:41:10;;;;;;;28.67;18.02;;;19.90;99.90;;;;;;5058885;28;20124;-66
2023/08/12 06:43:35;;;;;;;28.63;16.05;;;20.00;99.90;;;;;;5043774;28;20114;-65
2023/08/12 06:46:01;;;;;;;28.58;16.73;;;19.90;99.90;;;;;;5064324;28;20032;-66
2023/08/12 06:48:26;;;;;;;29.58;18.08;;;19.90;99.90;;;;;;5047006;28;20032;-66
2023/08/12 06:50:56;;;;;;;27.85;18.08;;;19.90;99.90;;;;;;5062020;28;20166;-66
2023/08/12 06:53:22;;;;;;;23.38;16.10;;;19.80;99.90;;;;;;5060716;28;20120;-66
2023/08/12 06:55:47;;;;;;;27.42;17.10;;;20.00;99.90;;;;;;5047461;28;20201;-66
2023/08/12 06:58:14;;;;;;;27.73;17.35;;;19.70;99.90;;;;;;5063459;28;20045;-66
2023/08/12 07:00:40;;;;;;;30.70;17.38;;;19.90;99.90;;;;;;5043366;28;20518;-66
2023/08/12 07:03:05;;;;;;;26.52;16.55;;;19.80;99.90;;;;;;5064608;28;20036;-66
2023/08/12 07:05:31;;;;;;;29.80;17.35;;;19.90;99.90;;;;;;5060301;28;20037;-66
2023/08/12 07:07:57;;;;;;;26.27;15.43;;;19.90;99.90;;;;;;5059276;28;20068;-66
2023/08/12 07:10:22;;;;;;;28.60;16.60;;;20.00;99.90;;;;;;5061483;28;20116;-66
2023/08/12 07:12:48;;;;;;;23.55;15.50;;;19.90;99.90;;;;;;5053805;28;20037;-66
2023/08/12 07:15:13;;;;;;;29.45;16.83;;;20.10;99.90;;;;;;5038801;28;20045;-65
2023/08/12 07:17:39;;;;;;;24.42;16.23;;;20.10;99.90;;;;;;5060670;28;20105;-66
2023/08/12 07:20:06;;;;;;;26.48;15.73;;;20.00;99.90;;;;;;5059636;28;20123;-66
2023/08/12 07:22:31;;;;;;;29.08;16.90;;;20.00;99.90;;;;;;5039078;28;20055;-66
2023/08/12 07:24:59;;;;;;;27.30;16.45;;;20.10;99.90;;;;;;5056148;28;20076;-66
2023/08/12 07:27:25;;;;;;;30.40;16.40;;;20.10;99.90;;;;;;5039153;28;20040;-66
2023/08/12 07:29:51;;;;;;;29.50;18.05;;;20.20;99.90;;;;;;5043600;28;20102;-66
2023/08/12 07:32:18;;;;;;;29.17;17.92;;;20.30;99.90;;;;;;5059757;28;20487;-66
2023/08/12 07:34:44;;;;;;;29.83;17.45;;;20.30;99.90;;;;;;5061054;28;20051;-66
2023/08/12 07:37:10;;;;;;;25.73;16.55;;;20.20;99.90;;;;;;5062690;28;20044;-66
2023/08/12 07:39:35;;;;;;;31.75;17.40;;;20.30;99.90;;;;;;5046934;28;20143;-66
2023/08/12 07:42:01;;;;;;;28.05;17.80;;;20.40;99.90;;;;;;5058978;28;20088;-66
2023/08/12 07:44:26;;;;;;;29.00;18.33;;;20.40;99.90;;;;;;5061276;28;20048;-66
2023/08/12 07:46:52;;;;;;;26.25;16.90;;;20.30;99.90;;;;;;5062083;28;20039;-66
2023/08/12 07:49:17;;;;;;;29.02;17.73;;;20.20;99.90;;;;;;5063001;28;20402;-66
2023/08/12 07:51:43;;;;;;;25.92;17.92;;;20.40;99.90;;;;;;5064283;28;20044;-66
2023/08/12 07:54:09;;;;;;;31.23;18.48;;;20.60;99.90;;;;;;5036961;28;20049;-66
2023/08/12 07:56:34;;;;;;;29.88;18.15;;;20.50;99.90;;;;;;5059340;28;20040;-66
2023/08/12 07:59:00;;;;;;;29.00;18.67;;;20.40;99.90;;;;;;5059423;28;20033;-66
2023/08/12 08:01:25;;;;;;;27.73;18.40;;;20.60;99.90;;;;;;5063011;28;20119;-66
2023/08/12 08:03:51;;;;;;;30.80;19.02;;;20.50;99.90;;;;;;5041311;28;20049;-66
2023/08/12 08:06:16;;;;;;;39.17;19.80;;;20.70;99.90;;;;;;5042520;28;20048;-66
2023/08/12 08:08:42;;;;;;;28.75;19.30;;;20.40;99.90;;;;;;5047892;28;20043;-66
2023/08/12 08:11:08;;;;;;;30.80;19.15;;;20.60;99.90;;;;;;5043246;28;20506;-66
2023/08/12 08:13:33;;;;;;;36.45;21.40;;;20.70;99.90;;;;;;5062585;28;20529;-66
2023/08/12 08:15:59;;;;;;;33.75;20.80;;;20.40;99.90;;;;;;5063142;28;20040;-66
2023/08/12 08:18:24;;;;;;;31.95;20.40;;;20.40;99.90;;;;;;5055209;28;20415;-66
2023/08/12 08:20:50;;;;;;;32.28;20.65;;;20.40;99.90;;;;;;5059336;28;20037;-66
2023/08/12 08:23:15;;;;;;;32.22;20.73;;;20.30;99.90;;;;;;5063966;28;20413;-66
2023/08/12 08:25:41;;;;;;;37.08;21.67;;;20.30;99.90;;;;;;5055327;28;20478;-66
2023/08/12 08:28:06;;;;;;;32.05;21.10;;;20.40;99.90;;;;;;5045774;28;20036;-66
2023/08/12 08:30:32;;;;;;;35.25;22.25;;;20.20;99.90;;;;;;5041463;28;20048;-66
2023/08/12 08:32:58;;;;;;;40.20;24.05;;;20.40;99.90;;;;;;5062811;28;20440;-66
2023/08/12 08:35:23;;;;;;;38.50;24.08;;;20.40;99.90;;;;;;5046839;28;20056;-65
2023/08/12 08:37:49;;;;;;;36.08;24.08;;;20.60;99.90;;;;;;5058079;28;20063;-66
2023/08/12 08:40:14;;;;;;;39.70;23.40;;;20.50;99.90;;;;;;5058944;28;20052;-65
2023/08/12 08:42:42;;;;;;;42.67;24.02;;;20.50;99.90;;;;;;5042195;28;20363;-66
2023/08/12 08:45:12;;;;;;;43.08;24.42;;;20.20;99.90;;;;;;5023265;28;20060;-66
2023/08/12 08:47:39;;;;;;;43.28;24.15;;;20.20;99.90;;;;;;5033834;28;20045;-66
2023/08/12 08:50:05;;;;;;;41.95;24.55;;;20.20;99.90;;;;;;5058258;28;20070;-66
2023/08/12 08:52:32;;;;;;;41.03;24.25;;;20.20;99.90;;;;;;5062541;28;20135;-66
2023/08/12 08:55:00;;;;;;;38.15;23.08;;;20.10;99.90;;;;;;5059460;28;20051;-66
2023/08/12 08:57:28;;;;;;;42.67;23.27;;;20.20;99.90;;;;;;5062625;28;20044;-66
2023/08/12 08:59:53;;;;;;;35.55;23.80;;;20.20;99.90;;;;;;5059412;28;20051;-66
2023/08/12 09:02:19;;;;;;;33.15;22.00;;;20.10;99.90;;;;;;5062423;28;20037;-66
2023/08/12 09:04:46;;;;;;;31.40;20.63;;;20.30;99.90;;;;;;5050531;28;20482;-66
2023/08/12 09:07:16;;;;;;;31.35;20.85;;;20.00;99.90;;;;;;5068954;28;20036;-66
2023/08/12 09:09:47;;;;;;;26.75;18.60;;;20.20;99.90;;;;;;5043868;28;20047;-66
2023/08/12 09:12:15;;;;;;;23.85;16.15;;;20.20;99.90;;;;;;5040434;28;20045;-66
2023/08/12 09:14:41;;;;;;;20.80;14.48;;;20.20;99.90;;;;;;5049414;28;20391;-66
2023/08/12 09:17:07;;;;;;;26.27;15.77;;;20.20;99.90;;;;;;5057654;28;20077;-66
2023/08/12 09:19:32;;;;;;;19.83;13.27;;;20.10;99.90;;;;;;5067185;28;20441;-66
2023/08/12 09:21:58;;;;;;;17.02;12.35;;;20.10;99.90;;;;;;5064571;28;20079;-66
2023/08/12 09:24:27;;;;;;;18.45;12.68;;;20.10;99.90;;;;;;5060456;28;20060;-66
2023/08/12 09:26:55;;;;;;;16.58;11.57;;;19.90;99.90;;;;;;5059341;28;20044;-66
2023/08/12 09:29:28;;;;;;;17.70;10.90;;;20.00;99.90;;;;;;5057755;28;20752;-66
2023/08/12 09:31:54;;;;;;;15.88;8.73;;;19.90;99.90;;;;;;5066729;28;20509;-66
2023/08/12 09:34:20;;;;;;;11.45;7.40;;;19.90;99.90;;;;;;5061188;28;20033;-66
2023/08/12 09:36:46;;;;;;;12.27;7.80;;;19.90;99.90;;;;;;5047107;28;20180;-66
2023/08/12 09:39:13;;;;;;;9.13;5.35;;;19.90;99.90;;;;;;5061082;28;20055;-66
2023/08/12 09:41:39;;;;;;;8.77;5.72;;;20.10;99.90;;;;;;5061755;28;20063;-66
2023/08/12 09:44:05;;;;;;;8.70;5.63;;;19.80;99.90;;;;;;5060042;28;20036;-66
2023/08/12 09:46:33;;;;;;;7.88;5.28;;;19.70;99.90;;;;;;5061048;28;20141;-66
2023/08/12 09:48:59;;;;;;;7.75;4.88;;;20.10;99.90;;;;;;5037074;28;20073;-66
2023/08/12 09:51:25;;;;;;;7.72;4.80;;;19.90;99.90;;;;;;5063557;28;20067;-66
2023/08/12 09:53:52;;;;;;;9.23;5.10;;;19.70;99.90;;;;;;5062874;28;20063;-66
2023/08/12 09:56:22;;;;;;;8.50;5.50;;;19.80;99.90;;;;;;5062094;28;20471;-66
2023/08/12 09:58:49;;;;;;;6.80;5.20;;;19.70;99.90;;;;;;5065337;28;20071;-66
2023/08/12 10:01:18;;;;;;;5.97;4.32;;;19.80;99.90;;;;;;5065432;28;20032;-66
2023/08/12 10:03:48;;;;;;;7.25;4.28;;;19.60;99.90;;;;;;5064565;28;20076;-66
2023/08/12 10:06:15;;;;;;;7.65;4.68;;;19.90;99.90;;;;;;5049156;28;20099;-66
2023/08/12 10:08:41;;;;;;;7.22;3.97;;;19.90;99.90;;;;;;5035940;28;20471;-66
2023/08/12 10:11:07;;;;;;;4.70;2.92;;;19.80;99.90;;;;;;5062942;28;20487;-66
2023/08/12 10:13:33;;;;;;;3.78;2.95;;;19.80;99.90;;;;;;5049541;28;20761;-66
2023/08/12 10:16:00;;;;;;;8.23;4.18;;;19.60;99.90;;;;;;5051066;28;20051;-66
2023/08/12 10:18:28;;;;;;;4.30;2.60;;;19.80;99.90;;;;;;5044931;28;20475;-66
2023/08/12 10:20:55;;;;;;;4.90;2.90;;;21.90;99.90;;;;;;5057441;28;20044;-66
2023/08/12 10:23:21;;;;;;;4.63;2.80;;;20.00;99.90;;;;;;5057812;28;20036;-66
2023/08/12 10:25:49;;;;;;;3.38;1.90;;;19.90;99.90;;;;;;5064363;28;20052;-66
2023/08/12 10:28:18;;;;;;;4.22;2.65;;;19.90;99.90;;;;;;5061922;28;20036;-66
2023/08/12 10:30:45;;;;;;;5.38;2.30;;;19.90;99.90;;;;;;5058776;28;20445;-66
2023/08/12 10:33:13;;;;;;;3.65;1.65;;;19.80;99.90;;;;;;5061107;28;20422;-66
2023/08/12 10:35:49;;;;;;;3.28;1.88;;;20.00;99.90;;;;;;5044330;28;20051;-66
2023/08/12 10:38:19;;;;;;;3.25;2.10;;;20.10;99.90;;;;;;5039730;28;20048;-66
2023/08/12 10:40:45;;;;;;;2.85;1.90;;;19.80;99.90;;;;;;5062094;28;20452;-66
2023/08/12 10:43:13;;;;;;;3.67;2.00;;;20.10;99.90;;;;;;5056752;28;20189;-66
2023/08/12 10:45:45;;;;;;;2.15;1.70;;;19.90;99.90;;;;;;5061678;28;20134;-66
2023/08/12 10:48:21;;;;;;;2.53;1.45;;;19.90;99.90;;;;;;5063362;28;20059;-66
2023/08/12 10:50:58;;;;;;;1.83;1.20;;;20.30;99.90;;;;;;5041824;28;20052;-66
2023/08/12 10:53:35;;;;;;;1.40;0.80;;;20.10;99.90;;;;;;5056708;28;20037;-66
2023/08/12 10:56:03;;;;;;;2.78;0.80;;;20.10;99.90;;;;;;5058711;28;20503;-65
2023/08/12 10:58:45;;;;;;;2.55;0.73;;;20.20;99.90;;;;;;5062948;28;20117;-66
2023/08/12 11:01:16;;;;;;;0.80;0.40;;;20.30;99.90;;;;;;5062133;28;20044;-65
2023/08/12 11:03:43;;;;;;;1.48;0.65;;;20.40;99.90;;;;;;5061424;28;20430;-66
2023/08/12 11:06:10;;;;;;;2.67;0.80;;;20.30;99.90;;;;;;5043867;28;20048;-66
2023/08/12 11:08:36;;;;;;;1.10;0.80;;;20.00;99.90;;;;;;5063871;28;20060;-66
2023/08/12 11:11:02;;;;;;;2.50;0.80;;;20.10;99.90;;;;;;5042194;28;20036;-66
2023/08/12 11:13:28;;;;;;;3.95;0.85;;;20.30;99.90;;;;;;5058920;28;20051;-66
2023/08/12 11:16:06;;;;;;;2.08;0.60;;;20.30;99.90;;;;;;5063746;28;20044;-66
2023/08/12 11:18:32;;;;;;;2.72;0.80;;;20.20;99.90;;;;;;5060260;28;20045;-66
2023/08/12 11:20:58;;;;;;;3.78;1.02;;;20.20;99.90;;;;;;5042675;28;20049;-66
2023/08/12 11:23:24;;;;;;;2.70;0.77;;;21.30;99.90;;;;;;5059399;28;20051;-66
2023/08/12 11:25:50;;;;;;;1.90;1.00;;;19.90;99.90;;;;;;5065293;28;20067;-66
2023/08/12 11:28:19;;;;;;;2.55;1.20;;;19.90;99.90;;;;;;5036508;28;20044;-66
2023/08/12 11:30:45;;;;;;;6.20;1.20;;;19.90;99.90;;;;;;5065940;28;20075;-66
2023/08/12 11:33:12;;;;;;;3.25;1.60;;;20.10;99.90;;;;;;5046493;28;20040;-66
2023/08/12 11:35:38;;;;;;;5.13;1.85;;;19.60;99.90;;;;;;5059936;28;20071;-66
2023/08/12 11:38:05;;;;;;;4.60;1.95;;;19.60;99.90;;;;;;5058159;28;20094;-68
2023/08/12 11:40:31;;;;;;;4.85;1.77;;;19.70;99.90;;;;;;5026168;28;20056;-66
2023/08/12 11:42:56;;;;;;;4.55;1.50;;;19.60;99.90;;;;;;5059854;28;20079;-66
2023/08/12 11:45:24;;;;;;;2.97;1.15;;;19.60;99.90;;;;;;5043764;28;20036;-66
2023/08/12 11:47:52;;;;;;;4.57;1.20;;;19.60;99.90;;;;;;5054476;28;20041;-66
2023/08/12 11:50:20;;;;;;;5.28;1.52;;;19.70;99.90;;;;;;5060212;28;20577;-66
2023/08/12 11:52:46;;;;;;;3.63;1.63;;;19.80;99.90;;;;;;5031490;28;20161;-66
2023/08/12 11:55:12;;;;;;;4.30;1.25;;;19.70;99.90;;;;;;5051529;28;20104;-66
2023/08/12 11:57:40;;;;;;;4.50;1.60;;;19.60;99.90;;;;;;5063093;28;20156;-66
2023/08/12 12:00:18;;;;;;;3.30;1.70;;;19.70;99.90;;;;;;5060493;28;20047;-66
2023/08/12 12:02:53;;;;;;;6.70;1.38;;;19.60;99.90;;;;;;5060405;28;20521;-66
2023/08/12 12:05:20;;;;;;;;;;;19.50;99.90;;;;;;5040115;28;20044;-66
2023/08/12 12:07:49;;;;;;;7.22;1.77;;;19.60;99.90;;;;;;5039096;28;19964;-66
2023/08/12 12:10:19;;;;;;;5.43;2.00;;;19.60;99.90;;;;;;5065457;28;20036;-66
2023/08/12 12:12:45;;;;;;;6.95;2.05;;;19.70;99.90;;;;;;5061993;28;20041;-66
2023/08/12 12:15:13;;;;;;;8.75;2.72;;;19.90;99.90;;;;;;5062315;28;20387;-66
2023/08/12 12:17:40;;;;;;;6.05;2.42;;;20.00;99.90;;;;;;5040376;28;20066;-66
2023/08/12 12:20:10;;;;;;;8.88;2.90;;;20.00;99.90;;;;;;5058447;28;20032;-66
2023/08/12 12:22:36;;;;;;;7.53;2.40;;;20.10;99.90;;;;;;5045602;28;20041;-66
2023/08/12 12:25:13;;;;;;;7.10;2.55;;;20.40;99.90;;;;;;5047622;28;20048;-66
2023/08/12 12:27:40;;;;;;;10.20;2.65;;;20.40;99.90;;;;;;5058144;28;20032;-66
2023/08/12 12:30:10;;;;;;;8.85;3.05;;;20.40;99.90;;;;;;5060452;28;20351;-66
2023/08/12 12:32:36;;;;;;;5.00;2.40;;;20.50;99.90;;;;;;5045681;28;20521;-66
2023/08/12 12:35:03;;;;;;;5.53;2.00;;;20.70;99.90;;;;;;5050761;28;20041;-66
2023/08/12 12:37:29;;;;;;;10.85;3.63;;;20.80;99.90;;;;;;5053338;28;20037;-66
2023/08/12 12:39:54;;;;;;;5.88;2.28;;;20.80;99.90;;;;;;5059448;28;20079;-66
2023/08/12 12:42:20;;;;;;;9.77;2.28;;;20.70;99.90;;;;;;5033095;28;20517;-66
2023/08/12 12:44:46;;;;;;;9.05;2.40;;;20.50;99.90;;;;;;5062249;28;20411;-66